Time;durP1;ratioP1;P1;durP2;ratioP2;P2;SDS_P1;SDS_P2;PMS_P1;PMS_P2;Temp;Humidity;BMP_temperature;BMP_pressure;BME280_temperature;BME280_humidity;BME280_pressure;Samples;Min_cycle;Max_cycle;Signal;HPM_P1;HPM_P2
2024/01/02 00:01:07;;;;;;;;;;;;;;;1.75;64.25;94464.09;4998603;28;19921;-66
2024/01/02 00:03:32;;;;;;;;;;;;;;;1.26;67.27;94472.28;4998513;28;19933;-63
2024/01/02 00:05:58;;;;;;;;;;;;;;;2.34;63.70;94460.06;4998919;28;19960;-65
2024/01/02 00:08:23;;;;;;;;;;;;;;;2.35;62.31;94448.56;4998133;28;19921;-63
2024/01/02 00:10:49;;;;;;;;;;;;;;;3.14;62.04;94452.06;4994992;28;19928;-66
2024/01/02 00:13:14;;;;;;;;;;;;;;;2.94;59.61;94441.81;4998012;28;19921;-66
2024/01/02 00:15:39;;;;;;;;;;;;;;;2.12;62.63;94435.16;4997778;28;19918;-66
2024/01/02 00:18:04;;;;;;;;;;;;;;;3.20;60.73;94434.81;4997124;28;20302;-66
2024/01/02 00:20:30;;;;;;;;;;;;;;;3.30;59.53;94415.25;4997335;28;19924;-66
2024/01/02 00:22:55;;;;;;;;;;;;;;;2.74;62.08;94420.19;4997474;28;19928;-64
2024/01/02 00:25:21;;;;;;;;;;;;;;;2.45;60.76;94414.31;4997462;28;20286;-66
2024/01/02 00:27:46;;;;;;;;;;;;;;;2.54;61.76;94409.94;4995393;28;20686;-65
2024/01/02 00:30:12;;;;;;;;;;;;;;;3.00;61.21;94403.53;4996697;28;20394;-67
2024/01/02 00:32:37;;;;;;;;;;;;;;;3.13;60.15;94403.06;4998240;28;20061;-62
2024/01/02 00:35:03;;;;;;;;;;;;;;;3.47;59.73;94386.34;4999379;28;19929;-66
2024/01/02 00:37:28;;;;;;;;;;;;;;;3.62;58.71;94370.75;4997632;28;19925;-65
2024/01/02 00:39:54;;;;;;;;;;;;;;;3.99;57.91;94367.75;4998192;28;19929;-64
2024/01/02 00:42:19;;;;;;;;;;;;;;;3.61;57.87;94376.16;4997892;28;20016;-67
2024/01/02 00:44:44;;;;;;;;;;;;;;;3.72;58.64;94365.31;4996448;28;19922;-65
2024/01/02 00:47:10;;;;;;;;;;;;;;;3.71;58.54;94352.31;4996843;28;19992;-66
2024/01/02 00:49:35;;;;;;;;;;;;;;;3.71;59.35;94362.84;4997693;28;19929;-66
2024/01/02 00:52:00;;;;;;;;;;;;;;;3.79;58.38;94349.66;4998435;28;20306;-67
2024/01/02 00:54:25;;;;;;;;;;;;;;;3.96;58.26;94349.63;4995929;28;19932;-66
2024/01/02 00:56:51;;;;;;;;;;;;;;;2.66;59.88;94339.53;4996354;28;19925;-66
2024/01/02 00:59:16;;;;;;;;;;;;;;;3.34;60.74;94331.56;4998236;28;19921;-65
2024/01/02 01:01:41;;;;;;;;;;;;;;;3.52;59.84;94317.44;4998290;28;19949;-67
2024/01/02 01:04:08;;;;;;;;;;;;;;;3.69;58.83;94323.53;4997945;28;19951;-66
2024/01/02 01:06:33;;;;;;;;;;;;;;;3.97;57.42;94315.22;4998269;28;20052;-67
2024/01/02 01:08:58;;;;;;;;;;;;;;;3.80;57.33;94315.28;4995411;28;20449;-66
2024/01/02 01:11:23;;;;;;;;;;;;;;;2.50;60.77;94317.47;4995373;28;19921;-66
2024/01/02 01:13:49;;;;;;;;;;;;;;;1.71;66.34;94304.47;5013621;28;19935;-66
2024/01/02 01:16:14;;;;;;;;;;;;;;;2.20;63.02;94301.25;5017681;28;19921;-66
2024/01/02 01:18:39;;;;;;;;;;;;;;;3.06;61.52;94292.41;5002469;28;19976;-66
2024/01/02 01:21:04;;;;;;;;;;;;;;;2.77;61.59;94281.41;4997131;28;19956;-66
2024/01/02 01:23:30;;;;;;;;;;;;;;;3.34;61.25;94273.69;4996416;28;20167;-66
2024/01/02 01:25:55;;;;;;;;;;;;;;;3.16;59.80;94272.03;4997075;28;19975;-66
2024/01/02 01:28:20;;;;;;;;;;;;;;;3.22;61.86;94275.81;4997776;28;19925;-67
2024/01/02 01:30:45;;;;;;;;;;;;;;;3.48;60.04;94261.69;4995637;28;20169;-66
2024/01/02 01:33:11;;;;;;;;;;;;;;;3.66;59.16;94264.13;4998677;28;19921;-66
2024/01/02 01:35:36;;;;;;;;;;;;;;;2.54;61.19;94254.91;4996980;28;19933;-67
2024/01/02 01:38:02;;;;;;;;;;;;;;;3.20;61.02;94251.47;4997628;28;19921;-66
2024/01/02 01:40:27;;;;;;;;;;;;;;;2.65;63.12;94241.44;4997792;28;19921;-66
2024/01/02 01:42:52;;;;;;;;;;;;;;;2.33;62.42;94239.56;4997888;28;19928;-66
2024/01/02 01:45:18;;;;;;;;;;;;;;;2.68;62.83;94247.38;4995553;28;19936;-67
2024/01/02 01:47:44;;;;;;;;;;;;;;;2.67;60.73;94240.47;4999061;28;20438;-67
2024/01/02 01:50:09;;;;;;;;;;;;;;;2.57;64.04;94225.69;4998649;28;19921;-67
2024/01/02 01:52:34;;;;;;;;;;;;;;;3.03;60.80;94222.56;4996218;28;19928;-66
2024/01/02 01:55:00;;;;;;;;;;;;;;;3.12;61.72;94199.72;4996990;28;19949;-66
2024/01/02 01:57:25;;;;;;;;;;;;;;;1.85;62.80;94209.41;4999895;28;19921;-67
2024/01/02 01:59:52;;;;;;;;;;;;;;;1.44;66.20;94202.16;4995016;28;19922;-67
2024/01/02 02:02:17;;;;;;;;;;;;;;;2.59;62.92;94196.63;4997519;28;19992;-67
2024/01/02 02:04:43;;;;;;;;;;;;;;;2.18;65.26;94178.97;4996132;28;20481;-67
2024/01/02 02:07:09;;;;;;;;;;;;;;;2.14;63.55;94179.31;4999027;28;20307;-66
2024/01/02 02:09:34;;;;;;;;;;;;;;;3.00;61.97;94154.53;4993110;28;19925;-67
2024/01/02 02:11:59;;;;;;;;;;;;;;;3.43;60.76;94164.81;4996094;28;20546;-64
2024/01/02 02:14:25;;;;;;;;;;;;;;;3.67;59.10;94157.00;5016434;28;19967;-64
2024/01/02 02:16:50;;;;;;;;;;;;;;;3.80;58.78;94138.03;5016793;28;19925;-64
2024/01/02 02:19:15;;;;;;;;;;;;;;;2.98;61.66;94129.41;5020355;28;19959;-64
2024/01/02 02:21:40;;;;;;;;;;;;;;;2.50;63.61;94119.59;5020047;28;19932;-64
2024/01/02 02:24:06;;;;;;;;;;;;;;;3.25;60.93;94104.53;5001781;28;20104;-64
2024/01/02 02:26:31;;;;;;;;;;;;;;;2.97;61.35;94111.97;5001277;28;19925;-64
2024/01/02 02:28:56;;;;;;;;;;;;;;;1.82;65.18;94104.75;4999903;28;19937;-64
2024/01/02 02:31:21;;;;;;;;;;;;;;;3.17;60.78;94094.81;5000558;28;20560;-63
2024/01/02 02:33:47;;;;;;;;;;;;;;;2.48;64.93;94100.53;5000108;28;20015;-64
2024/01/02 02:36:12;;;;;;;;;;;;;;;2.43;65.69;94087.06;4999350;28;19930;-64
2024/01/02 02:38:37;;;;;;;;;;;;;;;2.28;65.84;94077.22;4997668;28;20713;-64
2024/01/02 02:41:03;;;;;;;;;;;;;;;2.54;64.17;94070.97;4997564;28;19925;-64
2024/01/02 02:43:28;;;;;;;;;;;;;;;0.92;68.64;94070.09;4997911;28;19944;-63
2024/01/02 02:45:53;;;;;;;;;;;;;;;0.64;73.07;94072.06;5001148;28;19926;-64
2024/01/02 02:48:18;;;;;;;;;;;;;;;1.26;68.69;94055.34;5000844;28;20500;-63
2024/01/02 02:50:43;;;;;;;;;;;;;;;0.74;68.82;94046.59;5000770;28;19940;-63
2024/01/02 02:53:09;;;;;;;;;;;;;;;2.07;66.04;94036.50;4998494;28;19930;-64
2024/01/02 02:55:34;;;;;;;;;;;;;;;2.52;63.66;94029.09;4998822;28;19943;-63
2024/01/02 02:57:59;;;;;;;;;;;;;;;1.01;67.75;94031.66;5001081;28;19926;-64
2024/01/02 03:00:25;;;;;;;;;;;;;;;1.62;66.60;94021.06;5000728;28;19963;-64
2024/01/02 03:02:50;;;;;;;;;;;;;;;2.35;63.71;94022.25;5000434;28;20406;-64
2024/01/02 03:05:16;;;;;;;;;;;;;;;2.41;64.63;93997.91;4999175;28;20178;-64
2024/01/02 03:07:41;;;;;;;;;;;;;;;2.54;61.71;94000.03;4998834;28;20306;-64
2024/01/02 03:10:06;;;;;;;;;;;;;;;1.91;65.25;94000.59;4997339;28;20284;-64
2024/01/02 03:12:32;;;;;;;;;;;;;;;2.22;63.31;93992.03;5002380;28;19956;-64
2024/01/02 03:14:57;;;;;;;;;;;;;;;1.83;65.17;93975.16;5017746;28;19921;-63
2024/01/02 03:17:22;;;;;;;;;;;;;;;2.45;63.73;93964.28;5020180;28;20396;-64
2024/01/02 03:19:48;;;;;;;;;;;;;;;2.45;63.16;93961.66;5018932;28;20458;-64
2024/01/02 03:22:13;;;;;;;;;;;;;;;0.49;68.87;93948.72;5020792;28;20420;-64
2024/01/02 03:24:38;;;;;;;;;;;;;;;2.05;64.92;93935.28;5016392;28;20043;-64
2024/01/02 03:27:03;;;;;;;;;;;;;;;1.95;64.27;93923.16;5017032;28;19933;-64
2024/01/02 03:29:29;;;;;;;;;;;;;;;1.91;65.97;93923.66;5011328;28;19975;-64
2024/01/02 03:31:54;;;;;;;;;;;;;;;2.54;63.92;93905.44;5003107;28;19983;-63
2024/01/02 03:34:19;;;;;;;;;;;;;;;2.47;62.59;93905.31;4999336;28;19925;-63
2024/01/02 03:36:45;;;;;;;;;;;;;;;0.33;68.55;93911.00;5002148;28;19988;-64
2024/01/02 03:39:10;;;;;;;;;;;;;;;1.99;64.72;93900.00;5003017;28;19925;-63
2024/01/02 03:41:35;;;;;;;;;;;;;;;2.44;64.06;93889.88;5002384;28;19927;-64
2024/01/02 03:44:01;;;;;;;;;;;;;;;2.31;64.03;93879.91;5000192;28;19932;-64
2024/01/02 03:46:26;;;;;;;;;;;;;;;2.06;65.20;93873.91;4993999;28;19928;-63
2024/01/02 03:48:51;;;;;;;;;;;;;;;2.46;64.13;93874.78;5001833;28;19925;-64
2024/01/02 03:51:16;;;;;;;;;;;;;;;2.47;64.74;93863.28;5001428;28;19926;-64
2024/01/02 03:53:42;;;;;;;;;;;;;;;2.27;64.02;93858.44;4997253;28;19986;-64
2024/01/02 03:56:07;;;;;;;;;;;;;;;2.46;63.10;93855.56;4996028;28;20509;-64
2024/01/02 03:58:33;;;;;;;;;;;;;;;2.02;64.64;93836.69;4999694;28;19922;-64
2024/01/02 04:00:58;;;;;;;;;;;;;;;1.72;66.03;93841.66;4997627;28;19976;-64
2024/01/02 04:03:23;;;;;;;;;;;;;;;2.24;64.04;93839.56;4998559;28;19917;-63
2024/01/02 04:05:49;;;;;;;;;;;;;;;1.27;65.84;93855.09;5000534;28;19918;-64
2024/01/02 04:08:14;;;;;;;;;;;;;;;1.35;66.19;93839.38;4999610;28;19929;-64
2024/01/02 04:10:39;;;;;;;;;;;;;;;0.58;68.80;93833.38;4992532;28;19921;-63
2024/01/02 04:13:05;;;;;;;;;;;;;;;1.30;69.35;93815.44;4999574;28;20538;-63
2024/01/02 04:15:30;;;;;;;;;;;;;;;1.35;69.02;93812.31;4999634;28;20132;-64
2024/01/02 04:17:55;;;;;;;;;;;;;;;1.31;69.75;93792.66;5000657;28;19926;-64
2024/01/02 04:20:20;;;;;;;;;;;;;;;2.52;65.57;93794.47;5001561;28;20016;-63
2024/01/02 04:22:46;;;;;;;;;;;;;;;1.78;67.16;93774.56;4998810;28;19929;-65
2024/01/02 04:25:11;;;;;;;;;;;;;;;1.73;67.08;93781.16;4997396;28;19985;-64
2024/01/02 04:27:36;;;;;;;;;;;;;;;2.06;66.70;93772.34;4999746;28;19937;-64
2024/01/02 04:30:02;;;;;;;;;;;;;;;1.90;67.20;93751.41;5001627;28;19932;-65
2024/01/02 04:32:27;;;;;;;;;;;;;;;2.73;63.62;93754.41;5004600;28;20575;-64
2024/01/02 04:34:52;;;;;;;;;;;;;;;2.89;63.27;93755.28;5016458;28;20007;-66
2024/01/02 04:37:18;;;;;;;;;;;;;;;2.35;64.67;93742.00;5017672;28;19921;-67
2024/01/02 04:39:43;;;;;;;;;;;;;;;3.16;62.38;93738.16;5020240;28;19925;-67
2024/01/02 04:42:08;;;;;;;;;;;;;;;3.20;62.15;93727.28;5017976;28;19925;-66
2024/01/02 04:44:34;;;;;;;;;;;;;;;2.97;62.23;93725.50;5014330;28;19936;-66
2024/01/02 04:46:59;;;;;;;;;;;;;;;3.48;60.81;93705.66;5021100;28;19913;-66
2024/01/02 04:49:24;;;;;;;;;;;;;;;3.82;59.57;93693.78;5017826;28;19924;-66
2024/01/02 04:51:49;;;;;;;;;;;;;;;3.80;60.16;93688.69;5017496;28;20306;-65
2024/01/02 04:54:15;;;;;;;;;;;;;;;3.77;60.12;93678.53;5016589;28;19925;-66
2024/01/02 04:56:40;;;;;;;;;;;;;;;3.99;59.33;93672.50;5017105;28;19933;-66
2024/01/02 04:59:05;;;;;;;;;;;;;;;4.02;59.20;93667.66;5017865;28;19957;-67
2024/01/02 05:01:31;;;;;;;;;;;;;;;3.78;59.63;93658.28;5018242;28;19979;-66
2024/01/02 05:03:56;;;;;;;;;;;;;;;3.56;60.66;93671.38;5018143;28;19964;-66
2024/01/02 05:06:23;;;;;;;;;;;;;;;4.02;59.72;93643.19;5019101;28;19940;-65
2024/01/02 05:08:48;;;;;;;;;;;;;;;4.13;58.51;93661.13;5018732;28;20019;-65
2024/01/02 05:11:14;;;;;;;;;;;;;;;3.93;59.10;93656.44;5010697;28;20023;-65
2024/01/02 05:13:39;;;;;;;;;;;;;;;4.10;59.57;93656.22;5018578;28;20869;-63
2024/01/02 05:16:06;;;;;;;;;;;;;;;2.72;61.99;93675.78;5017687;28;19929;-67
2024/01/02 05:18:32;;;;;;;;;;;;;;;3.31;61.77;93655.84;5017704;28;20376;-67
2024/01/02 05:20:57;;;;;;;;;;;;;;;2.58;62.08;93658.97;5019861;28;20032;-66
2024/01/02 05:23:22;;;;;;;;;;;;;;;3.05;61.64;93636.03;5021499;28;20356;-67
2024/01/02 05:25:47;;;;;;;;;;;;;;;3.76;60.56;93634.78;5016632;28;20000;-63
2024/01/02 05:28:13;;;;;;;;;;;;;;;4.02;59.70;93622.09;5018042;28;19929;-63
2024/01/02 05:30:38;;;;;;;;;;;;;;;3.76;60.36;93612.91;5021010;28;19925;-66
2024/01/02 05:33:03;;;;;;;;;;;;;;;3.99;59.66;93612.78;5023354;28;19924;-64
2024/01/02 05:35:29;;;;;;;;;;;;;;;4.15;58.28;93610.91;5016752;28;20428;-66
2024/01/02 05:37:54;;;;;;;;;;;;;;;4.01;59.54;93617.84;5020186;28;19932;-66
2024/01/02 05:40:19;;;;;;;;;;;;;;;3.91;59.62;93620.78;5015815;28;20426;-66
2024/01/02 05:42:45;;;;;;;;;;;;;;;2.04;64.74;93624.69;5014536;28;19917;-67
2024/01/02 05:45:10;;;;;;;;;;;;;;;2.09;65.41;93625.00;5011065;28;19929;-69
2024/01/02 05:47:35;;;;;;;;;;;;;;;2.75;64.07;93635.97;5019356;28;19936;-69
2024/01/02 05:50:00;;;;;;;;;;;;;;;2.59;66.10;93621.19;5016079;28;19936;-69
2024/01/02 05:52:26;;;;;;;;;;;;;;;3.09;64.65;93629.41;5019082;28;19925;-67
2024/01/02 05:54:51;;;;;;;;;;;;;;;2.49;67.60;93619.59;5018242;28;19925;-70
2024/01/02 05:57:16;;;;;;;;;;;;;;;2.75;66.13;93557.13;5018214;28;19925;-68
2024/01/02 05:59:41;;;;;;;;;;;;;;;2.84;65.93;93592.88;5015604;28;19925;-68
2024/01/02 06:02:07;;;;;;;;;;;;;;;3.03;65.17;93614.38;5019744;28;19929;-68
2024/01/02 06:04:32;;;;;;;;;;;;;;;3.23;63.95;93640.13;5020031;28;19929;-69
2024/01/02 06:06:57;;;;;;;;;;;;;;;2.55;67.29;93628.59;5017543;28;19933;-68
2024/01/02 06:09:23;;;;;;;;;;;;;;;2.70;66.18;93633.06;5015353;28;19929;-67
2024/01/02 06:11:48;;;;;;;;;;;;;;;2.36;67.87;93635.16;5019519;28;19948;-69
2024/01/02 06:14:15;;;;;;;;;;;;;;;3.66;64.01;93637.69;5014185;28;19990;-65
2024/01/02 06:16:40;;;;;;;;;;;;;;;2.35;67.82;93651.91;5020519;28;19931;-67
2024/01/02 06:19:06;;;;;;;;;;;;;;;2.51;70.25;93582.66;5016109;28;19926;-65
2024/01/02 06:21:31;;;;;;;;;;;;;;;2.41;68.97;93613.63;5021909;28;19975;-69
2024/01/02 06:23:56;;;;;;;;;;;;;;;1.59;73.47;93632.31;5017340;28;19917;-68
2024/01/02 06:26:21;;;;;;;;;;;;;;;2.09;73.42;93627.63;5015121;28;19983;-69
2024/01/02 06:28:47;;;;;;;;;;;;;;;1.31;78.67;93628.28;5015962;28;19933;-66
2024/01/02 06:31:12;;;;;;;;;;;;;;;1.56;77.42;93624.75;5018504;28;19925;-65
2024/01/02 06:33:44;;;;;;;;;;;;;;;2.05;77.64;93601.88;5022323;28;20532;-69
2024/01/02 06:36:09;;;;;;;;;;;;;;;2.43;75.88;93616.88;5020952;28;19933;-66
2024/01/02 06:38:34;;;;;;;;;;;;;;;2.38;75.96;93589.31;5019296;28;19917;-69
2024/01/02 06:41:00;;;;;;;;;;;;;;;2.45;74.82;93588.63;5019273;28;19932;-68
2024/01/02 06:43:25;;;;;;;;;;;;;;;2.55;74.88;93591.00;5017498;28;20393;-67
2024/01/02 06:45:50;;;;;;;;;;;;;;;1.33;83.33;93605.31;5016625;28;19982;-68
2024/01/02 06:48:16;;;;;;;;;;;;;;;1.80;82.71;93607.28;5015864;28;20029;-69
2024/01/02 06:50:41;;;;;;;;;;;;;;;1.36;86.52;93599.75;5017251;28;20324;-67
2024/01/02 06:53:06;;;;;;;;;;;;;;;0.92;88.73;93593.16;5013269;28;20589;-62
2024/01/02 06:55:31;;;;;;;;;;;;;;;1.18;89.08;93628.00;5016863;28;19927;-63
2024/01/02 06:57:57;;;;;;;;;;;;;;;1.64;84.22;93611.63;5021408;28;20477;-64
2024/01/02 07:00:22;;;;;;;;;;;;;;;1.28;87.86;93597.16;5021314;28;20011;-64
2024/01/02 07:02:48;;;;;;;;;;;;;;;1.64;85.03;93606.38;5020749;28;19936;-64
2024/01/02 07:05:14;;;;;;;;;;;;;;;1.66;85.92;93603.59;5020450;28;19933;-63
2024/01/02 07:07:39;;;;;;;;;;;;;;;1.49;84.44;93611.50;5021331;28;20579;-65
2024/01/02 07:10:05;;;;;;;;;;;;;;;0.91;89.25;93622.16;5021177;28;20023;-61
2024/01/02 07:12:30;;;;;;;;;;;;;;;0.95;89.43;93624.28;5023262;28;19921;-62
2024/01/02 07:14:57;;;;;;;;;;;;;;;1.13;89.17;93611.97;5020451;28;19925;-64
2024/01/02 07:17:23;;;;;;;;;;;;;;;1.16;87.78;93633.41;5023357;28;20006;-64
2024/01/02 07:19:48;;;;;;;;;;;;;;;0.93;90.08;93618.41;5019177;28;20421;-63
2024/01/02 07:22:13;;;;;;;;;;;;;;;0.85;90.23;93618.41;5026897;28;19925;-63
2024/01/02 07:24:38;;;;;;;;;;;;;;;0.46;91.62;93641.72;5025460;28;20137;-63
2024/01/02 07:27:04;;;;;;;;;;;;;;;1.05;89.86;93626.72;5023098;28;20331;-64
2024/01/02 07:29:29;;;;;;;;;;;;;;;1.10;87.89;93607.88;5023412;28;20294;-63
2024/01/02 07:31:54;;;;;;;;;;;;;;;1.30;88.73;93610.91;5017536;28;20424;-63
2024/01/02 07:34:20;;;;;;;;;;;;;;;1.43;85.70;93609.56;5028291;28;19978;-64
2024/01/02 07:36:45;;;;;;;;;;;;;;;1.19;88.27;93622.59;5018457;28;20356;-62
2024/01/02 07:39:10;;;;;;;;;;;;;;;1.41;86.35;93635.13;5018696;28;20297;-63
2024/01/02 07:41:36;;;;;;;;;;;;;;;1.23;88.48;93628.31;5018581;28;19928;-64
2024/01/02 07:44:03;;;;;;;;;;;;;;;0.69;90.14;93666.41;5012908;28;19952;-63
2024/01/02 07:46:28;;;;;;;;;;;;;;;1.21;87.67;93646.00;5016574;28;19931;-63
2024/01/02 07:48:54;;;;;;;;;;;;;;;1.65;87.01;93622.94;5018386;28;20306;-63
2024/01/02 07:51:19;;;;;;;;;;;;;;;1.57;87.28;93627.22;5018678;28;20022;-63
2024/01/02 07:53:44;;;;;;;;;;;;;;;0.93;89.64;93630.69;5016293;28;20626;-64
2024/01/02 07:56:10;;;;;;;;;;;;;;;1.19;88.69;93653.25;5018981;28;20050;-63
2024/01/02 07:58:35;;;;;;;;;;;;;;;1.14;89.29;93645.88;5018060;28;19924;-63
2024/01/02 08:01:00;;;;;;;;;;;;;;;1.10;89.31;93642.75;5017475;28;19925;-63
2024/01/02 08:03:26;;;;;;;;;;;;;;;1.21;89.54;93661.75;5018892;28;19921;-65
2024/01/02 08:05:51;;;;;;;;;;;;;;;1.33;89.05;93664.84;5018190;28;19952;-64
2024/01/02 08:08:16;;;;;;;;;;;;;;;1.06;92.87;93635.41;5017930;28;20460;-64
2024/01/02 08:10:42;;;;;;;;;;;;;;;1.73;89.52;93641.25;5011782;28;19921;-65
2024/01/02 08:13:07;;;;;;;;;;;;;;;1.28;91.32;93644.34;5017998;28;20032;-65
2024/01/02 08:15:32;;;;;;;;;;;;;;;1.41;89.84;93654.31;5014815;28;19921;-62
2024/01/02 08:17:58;;;;;;;;;;;;;;;1.37;90.00;93666.94;5017701;28;20532;-66
2024/01/02 08:20:23;;;;;;;;;;;;;;;1.33;89.96;93655.16;5017924;28;19917;-65
2024/01/02 08:22:48;;;;;;;;;;;;;;;1.57;89.13;93671.81;5018022;28;20037;-62
2024/01/02 08:25:13;;;;;;;;;;;;;;;1.52;88.40;93658.38;5017462;28;20023;-66
2024/01/02 08:27:39;;;;;;;;;;;;;;;0.97;91.83;93655.56;5018413;28;19963;-65
2024/01/02 08:30:04;;;;;;;;;;;;;;;1.84;88.16;93659.25;5014954;28;19929;-63
2024/01/02 08:32:30;;;;;;;;;;;;;;;1.70;86.27;93654.72;5014654;28;20334;-65
2024/01/02 08:34:55;;;;;;;;;;;;;;;2.00;86.22;93666.22;5017598;28;19917;-64
2024/01/02 08:37:20;;;;;;;;;;;;;;;1.48;87.73;93697.25;5017192;28;20410;-65
2024/01/02 08:39:45;;;;;;;;;;;;;;;1.52;89.81;93666.25;5017732;28;19979;-65
2024/01/02 08:42:11;;;;;;;;;;;;;;;1.16;91.53;93661.44;5017365;28;19928;-65
2024/01/02 08:44:36;;;;;;;;;;;;;;;1.44;91.00;93666.28;5013571;28;20191;-62
2024/01/02 08:47:01;;;;;;;;;;;;;;;1.35;92.29;93665.47;5018998;28;20015;-62
2024/01/02 08:49:27;;;;;;;;;;;;;;;1.30;90.58;93691.38;5017333;28;20413;-65
2024/01/02 08:51:52;;;;;;;;;;;;;;;1.32;88.89;93671.88;5016963;28;20006;-62
2024/01/02 08:54:18;;;;;;;;;;;;;;;1.41;91.38;93672.69;5016896;28;20530;-65
2024/01/02 08:56:43;;;;;;;;;;;;;;;1.26;89.76;93701.38;5015604;28;19928;-64
2024/01/02 08:59:08;;;;;;;;;;;;;;;1.66;90.49;93675.22;5016653;28;20313;-66
2024/01/02 09:01:34;;;;;;;;;;;;;;;1.45;90.22;93660.84;5016307;28;19925;-66
2024/01/02 09:03:59;;;;;;;;;;;;;;;1.49;91.49;93679.69;5016051;28;20384;-65
2024/01/02 09:06:24;;;;;;;;;;;;;;;1.84;90.52;93680.22;5014664;28;19925;-65
2024/01/02 09:08:50;;;;;;;;;;;;;;;1.78;89.51;93674.84;5013553;28;19982;-64
2024/01/02 09:11:15;;;;;;;;;;;;;;;1.59;88.25;93685.59;5015744;28;20002;-66
2024/01/02 09:13:40;;;;;;;;;;;;;;;1.99;86.45;93684.75;5013841;28;20375;-65
2024/01/02 09:16:06;;;;;;;;;;;;;;;1.67;88.38;93689.19;5016882;28;19921;-64
2024/01/02 09:18:31;;;;;;;;;;;;;;;1.62;88.32;93698.38;5016520;28;19925;-64
2024/01/02 09:20:57;;;;;;;;;;;;;;;1.73;88.89;93688.47;5015216;28;20142;-62
2024/01/02 09:23:22;;;;;;;;;;;;;;;1.95;86.84;93679.06;5015802;28;19925;-65
2024/01/02 09:25:48;;;;;;;;;;;;;;;2.09;87.19;93681.94;5015312;28;20299;-65
2024/01/02 09:28:13;;;;;;;;;;;;;;;1.80;87.58;93694.69;5014691;28;20012;-65
2024/01/02 09:30:39;;;;;;;;;;;;;;;1.76;88.07;93682.91;5016430;28;20466;-64
2024/01/02 09:33:04;;;;;;;;;;;;;;;1.65;86.17;93691.13;5016348;28;19975;-64
2024/01/02 09:35:29;;;;;;;;;;;;;;;2.49;85.12;93687.09;5015643;28;20031;-66
2024/01/02 09:37:55;;;;;;;;;;;;;;;2.45;84.04;93691.06;5014288;28;20314;-65
2024/01/02 09:40:34;;;;;;;;;;;;;;;1.96;84.99;93704.31;5016166;28;19921;-63
2024/01/02 09:43:05;;;;;;;;;;;;;;;2.31;84.28;93688.19;5012597;28;20268;-64
2024/01/02 09:45:35;;;;;;;;;;;;;;;2.06;83.60;93695.38;5004014;28;20850;-65
2024/01/02 09:48:12;;;;;;;;;;;;;;;2.20;84.21;93699.09;5005605;28;19925;-65
2024/01/02 09:50:43;;;;;;;;;;;;;;;2.74;82.64;93686.91;5015840;28;19990;-64
2024/01/02 09:53:27;;;;;;;;;;;;;;;2.59;83.40;93686.88;5013434;28;20108;-64
2024/01/02 09:56:11;;;;;;;;;;;;;;;2.23;83.44;93698.75;5012651;28;19920;-63
2024/01/02 09:58:36;;;;;;;;;;;;;;;2.39;83.74;93697.84;5015561;28;19921;-65
2024/01/02 10:01:02;;;;;;;;;;;;;;;2.11;83.42;93712.25;5015295;28;19951;-64
2024/01/02 10:03:34;;;;;;;;;;;;;;;2.08;86.46;93688.97;5015974;28;19928;-65
2024/01/02 10:06:14;;;;;;;;;;;;;;;2.26;85.25;93691.34;5015436;28;19932;-65
2024/01/02 10:09:00;;;;;;;;;;;;;;;1.83;86.53;93694.34;5011187;28;19929;-64
2024/01/02 10:11:28;;;;;;;;;;;;;;;2.29;83.71;93695.44;5010374;28;19948;-65
2024/01/02 10:14:01;;;;;;;;;;;;;;;1.95;83.32;93686.09;5012521;28;19925;-64
2024/01/02 10:16:47;;;;;;;;;;;;;;;2.07;85.67;93678.63;5008881;28;20072;-65
2024/01/02 10:19:19;;;;;;;;;;;;;;;1.80;85.45;93697.31;5009183;28;20294;-65
2024/01/02 10:21:56;;;;;;;;;;;;;;;2.39;84.01;93677.63;5014531;28;20675;-63
2024/01/02 10:24:23;;;;;;;;;;;;;;;2.27;81.70;93663.25;5008986;28;20378;-64
2024/01/02 10:26:59;;;;;;;;;;;;;;;2.00;83.61;93668.84;5015418;28;19982;-65
2024/01/02 10:29:27;;;;;;;;;;;;;;;1.56;86.59;93670.19;5008646;28;19929;-67
2024/01/02 10:32:04;;;;;;;;;;;;;;;2.17;84.01;93658.25;5015026;28;20173;-67
2024/01/02 10:34:37;;;;;;;;;;;;;;;2.28;83.21;93667.53;5015964;28;19932;-66
2024/01/02 10:37:06;;;;;;;;;;;;;;;2.66;81.93;93635.25;5018425;28;20010;-66
2024/01/02 10:39:35;;;;;;;;;;;;;;;2.27;83.27;93642.25;5019305;28;20538;-65
2024/01/02 10:42:10;;;;;;;;;;;;;;;2.36;81.15;93688.50;5019611;28;20704;-66
2024/01/02 10:44:38;;;;;;;;;;;;;;;2.24;82.58;93643.44;5014494;28;19925;-67
2024/01/02 10:47:24;;;;;;;;;;;;;;;2.10;84.06;93642.38;5018377;28;19909;-66
2024/01/02 10:49:54;;;;;;;;;;;;;;;1.94;83.42;93645.09;5010737;28;20139;-66
2024/01/02 10:52:25;;;;;;;;;;;;;;;2.31;82.91;93632.25;5017628;28;20667;-67
2024/01/02 10:55:01;;;;;;;;;;;;;;;2.20;81.88;93622.94;5016053;28;19952;-66
2024/01/02 10:57:29;;;;;;;;;;;;;;;1.80;84.92;93636.97;5016869;28;19925;-67
2024/01/02 11:00:07;;;;;;;;;;;;;;;2.19;84.45;93621.31;5017250;28;20410;-65
2024/01/02 11:02:36;;;;;;;;;;;;;;;2.53;82.98;93636.63;5018533;28;19925;-66
2024/01/02 11:05:11;;;;;;;;;;;;;;;2.56;82.11;93642.53;5013464;28;19979;-65
2024/01/02 11:07:39;;;;;;;;;;;;;;;2.60;82.02;93670.94;5015125;28;19965;-67
2024/01/02 11:10:08;;;;;;;;;;;;;;;2.73;81.38;93637.97;5017899;28;19947;-67
2024/01/02 11:12:39;;;;;;;;;;;;;;;1.52;86.24;93666.25;5018622;28;19921;-64
2024/01/02 11:15:11;;;;;;;;;;;;;;;2.01;86.54;93670.47;5015068;28;19917;-65
2024/01/02 11:17:36;;;;;;;;;;;;;;;1.65;89.45;93650.00;5016862;28;20722;-65
2024/01/02 11:20:03;;;;;;;;;;;;;;;2.39;84.87;93643.47;5017239;28;19932;-66
2024/01/02 11:22:29;;;;;;;;;;;;;;;2.52;83.88;93652.59;5017601;28;20201;-68
2024/01/02 11:24:56;;;;;;;;;;;;;;;2.31;83.22;93658.50;5016883;28;19947;-65
2024/01/02 11:27:23;;;;;;;;;;;;;;;2.45;81.85;93655.09;5018889;28;20505;-67
2024/01/02 11:29:48;;;;;;;;;;;;;;;2.76;82.34;93653.41;5015796;28;19929;-68
2024/01/02 11:32:15;;;;;;;;;;;;;;;1.94;84.36;93648.53;5018030;28;19917;-64
2024/01/02 11:35:00;;;;;;;;;;;;;;;1.61;86.42;93643.44;5018952;28;19932;-65
2024/01/02 11:37:38;;;;;;;;;;;;;;;1.67;88.51;93632.25;5017802;28;20861;-63
2024/01/02 11:40:06;;;;;;;;;;;;;;;2.07;85.70;93634.84;5016322;28;19921;-63
2024/01/02 11:42:47;;;;;;;;;;;;;;;1.59;88.03;93632.31;5017648;28;20577;-65
2024/01/02 11:45:13;;;;;;;;;;;;;;;1.70;87.11;93639.00;5015660;28;19922;-64
2024/01/02 11:47:38;;;;;;;;;;;;;;;1.60;87.57;93632.13;5017910;28;19952;-62
2024/01/02 11:50:03;;;;;;;;;;;;;;;1.99;85.53;93632.25;5013119;28;19974;-64
2024/01/02 11:52:29;;;;;;;;;;;;;;;2.01;84.45;93619.81;5017709;28;19929;-64
2024/01/02 11:55:20;;;;;;;;;;;;;;;1.07;87.56;93635.25;5014334;28;20518;-64
2024/01/02 11:57:52;;;;;;;;;;;;;;;1.35;89.08;93616.47;5013463;28;20489;-64
2024/01/02 12:00:21;;;;;;;;;;;;;;;1.21;88.94;93617.19;5022133;28;19921;-65
2024/01/02 12:02:57;;;;;;;;;;;;;;;1.10;90.18;93595.56;5018279;28;19924;-64
2024/01/02 12:05:42;;;;;;;;;;;;;;;1.33;87.28;93610.56;5015938;28;20405;-65
2024/01/02 12:08:13;;;;;;;;;;;;;;;1.58;86.17;93607.91;5012853;28;20063;-64
2024/01/02 12:10:41;;;;;;;;;;;;;;;2.06;85.74;93593.00;5016323;28;20397;-65
2024/01/02 12:13:23;;;;;;;;;;;;;;;1.51;88.27;93591.16;5015659;28;19928;-63
2024/01/02 12:15:49;;;;;;;;;;;;;;;2.16;83.39;93569.97;5021299;28;20015;-65
2024/01/02 12:18:14;;;;;;;;;;;;;;;1.83;85.06;93586.75;5021790;28;20114;-65
2024/01/02 12:20:40;;;;;;;;;;;;;;;2.18;82.70;93581.09;5016700;28;20110;-62
2024/01/02 12:23:05;;;;;;;;;;;;;;;2.67;81.20;93565.09;5016822;28;19917;-65
2024/01/02 12:25:31;;;;;;;;;;;;;;;2.42;81.32;93549.56;5014270;28;20413;-66
2024/01/02 12:27:56;;;;;;;;;;;;;;;2.65;77.65;93570.53;5017537;28;20640;-64
2024/01/02 12:30:30;;;;;;;;;;;;;;;2.61;80.02;93542.97;5017630;28;20178;-63
2024/01/02 12:33:04;;;;;;;;;;;;;;;2.55;79.18;93543.72;5016983;28;19928;-63
2024/01/02 12:35:35;;;;;;;;;;;;;;;2.75;78.34;93539.56;5016180;28;20497;-64
2024/01/02 12:38:17;;;;;;;;;;;;;;;2.28;81.27;93541.47;5011039;28;19935;-64
2024/01/02 12:40:44;;;;;;;;;;;;;;;2.36;82.50;93537.97;5017232;28;19952;-65
2024/01/02 12:43:11;;;;;;;;;;;;;;;2.60;81.14;93507.22;5016256;28;20469;-65
2024/01/02 12:45:36;;;;;;;;;;;;;;;2.65;79.87;93520.59;5009833;28;19931;-65
2024/01/02 12:48:05;;;;;;;;;;;;;;;3.19;77.03;93521.31;5015701;28;19920;-65
2024/01/02 12:50:30;;;;;;;;;;;;;;;3.00;78.45;93510.38;5016790;28;19961;-65
2024/01/02 12:53:04;;;;;;;;;;;;;;;2.96;79.44;93497.78;5013382;28;19960;-66
2024/01/02 12:55:31;;;;;;;;;;;;;;;3.68;74.98;93501.47;5014572;28;20746;-65